Time;durP1;ratioP1;P1;durP2;ratioP2;P2;SDS_P1;SDS_P2;PMS_P1;PMS_P2;Temp;Humidity;BMP_temperature;BMP_pressure;BME280_temperature;BME280_humidity;BME280_pressure;Samples;Min_cycle;Max_cycle;Signal;HPM_P1;HPM_P2
2021/12/27 00:00:07;;;;;;;9.57;3.65;;;-2.50;99.90;;;;;;4115357;28;20279;-72
2021/12/27 00:02:09;;;;;;;9.82;3.67;;;-2.50;99.90;;;;;;4121374;28;20666;-75
2021/12/27 00:04:11;;;;;;;8.25;3.75;;;-2.50;99.90;;;;;;4118435;28;20267;-72
2021/12/27 00:06:14;;;;;;;8.67;3.77;;;-2.50;99.90;;;;;;4115504;28;20216;-75
2021/12/27 00:08:16;;;;;;;9.93;4.03;;;-2.40;99.90;;;;;;4121637;28;20526;-76
2021/12/27 00:10:20;;;;;;;10.43;4.10;;;-2.40;99.90;;;;;;4131343;28;20212;-76
2021/12/27 00:12:22;;;;;;;7.70;3.75;;;-2.40;99.90;;;;;;4128600;28;20511;-75
2021/12/27 00:14:23;;;;;;;9.50;3.95;;;-2.40;99.90;;;;;;4115571;28;20213;-75
2021/12/27 00:16:25;;;;;;;9.17;4.30;;;-2.40;99.90;;;;;;4115356;28;20217;-71
2021/12/27 00:18:27;;;;;;;8.45;4.25;;;-2.40;99.90;;;;;;4115404;28;20841;-72
2021/12/27 00:20:28;;;;;;;9.07;4.03;;;-2.40;99.90;;;;;;4115313;28;20700;-72
2021/12/27 00:22:31;;;;;;;8.32;3.72;;;-2.40;99.90;;;;;;4118609;28;20221;-72
2021/12/27 00:24:33;;;;;;;9.82;4.00;;;-2.40;99.90;;;;;;4131728;28;20271;-72
2021/12/27 00:26:35;;;;;;;7.65;3.72;;;-2.40;99.90;;;;;;4131413;28;20212;-72
2021/12/27 00:28:37;;;;;;;7.63;3.70;;;-2.40;99.90;;;;;;4131633;28;20286;-72
2021/12/27 00:30:38;;;;;;;9.15;3.47;;;-2.40;99.90;;;;;;4130069;28;20475;-72
2021/12/27 00:32:43;;;;;;;9.98;3.88;;;-2.40;99.90;;;;;;4133934;28;20270;-75
2021/12/27 00:34:45;;;;;;;10.32;4.35;;;-2.40;99.90;;;;;;4118460;28;20213;-72
2021/12/27 00:36:46;;;;;;;10.63;4.17;;;-2.40;99.90;;;;;;4118069;28;20273;-74
2021/12/27 00:38:49;;;;;;;7.95;3.92;;;-2.40;99.90;;;;;;4118225;28;20476;-71
2021/12/27 00:40:51;;;;;;;8.70;3.53;;;-2.30;99.90;;;;;;4118196;28;20217;-73
2021/12/27 00:42:53;;;;;;;8.77;3.67;;;-2.30;99.90;;;;;;4134114;28;20514;-72
2021/12/27 00:44:54;;;;;;;10.15;4.47;;;-2.30;99.90;;;;;;4134483;28;20957;-75
2021/12/27 00:46:56;;;;;;;10.02;4.03;;;-2.30;99.90;;;;;;4127740;28;20213;-77
2021/12/27 00:48:58;;;;;;;9.73;4.30;;;-2.30;99.90;;;;;;4117126;28;20706;-77
2021/12/27 00:51:00;;;;;;;8.25;3.75;;;-2.30;99.90;;;;;;4118158;28;20271;-72
2021/12/27 00:53:01;;;;;;;13.03;4.33;;;-2.30;99.90;;;;;;4132904;28;20706;-73
2021/12/27 00:55:07;;;;;;;8.50;4.37;;;-2.30;99.90;;;;;;4134310;28;20515;-73
2021/12/27 00:57:08;;;;;;;9.70;3.80;;;-2.30;99.90;;;;;;4120299;28;20488;-72
2021/12/27 00:59:11;;;;;;;10.73;4.43;;;-2.30;99.90;;;;;;4117290;28;20531;-73
2021/12/27 01:01:12;;;;;;;8.13;3.88;;;-2.30;99.90;;;;;;4131157;28;20212;-72
2021/12/27 01:03:14;;;;;;;7.70;3.80;;;-2.30;99.90;;;;;;4128713;28;20284;-73
2021/12/27 01:05:19;;;;;;;9.13;3.50;;;-2.30;99.90;;;;;;4118104;28;20504;-71
2021/12/27 01:07:20;;;;;;;10.48;4.05;;;-2.20;99.90;;;;;;4117041;28;20500;-72
2021/12/27 01:09:32;;;;;;;9.73;4.22;;;-2.20;99.90;;;;;;4118017;28;20224;-72
2021/12/27 01:11:46;;;;;;;8.73;3.73;;;-2.30;99.90;;;;;;4130966;28;20218;-72
2021/12/27 01:14:01;;;;;;;8.95;4.10;;;-2.20;99.90;;;;;;4134045;28;20474;-73
2021/12/27 01:16:11;;;;;;;8.97;3.90;;;-2.20;99.90;;;;;;4133252;28;20220;-73
2021/12/27 01:18:13;;;;;;;9.75;3.63;;;-2.20;99.90;;;;;;4117805;28;20492;-73
2021/12/27 01:20:18;;;;;;;7.82;3.78;;;-2.20;99.90;;;;;;4117607;28;20244;-72
2021/12/27 01:22:20;;;;;;;9.15;4.00;;;-2.20;99.90;;;;;;4131134;28;20659;-74
2021/12/27 01:24:21;;;;;;;9.93;4.22;;;-2.20;99.90;;;;;;4132203;28;20634;-72
2021/12/27 01:26:25;;;;;;;8.37;4.00;;;-2.20;99.90;;;;;;4117787;28;20616;-73
2021/12/27 01:28:28;;;;;;;7.93;3.50;;;-2.20;99.90;;;;;;4117570;28;20582;-72
2021/12/27 01:30:36;;;;;;;8.13;3.57;;;-2.10;99.90;;;;;;4117494;28;20468;-73
2021/12/27 01:32:45;;;;;;;10.00;4.07;;;-2.10;99.90;;;;;;4133221;28;20840;-74
2021/12/27 01:34:46;;;;;;;7.38;3.78;;;-2.10;99.90;;;;;;4120595;28;20480;-73
2021/12/27 01:36:48;;;;;;;10.37;4.43;;;-2.10;99.90;;;;;;4125813;28;20259;-74
2021/12/27 01:38:50;;;;;;;8.80;4.17;;;-2.10;99.90;;;;;;4230983;22;20549;-81
2021/12/27 01:40:54;;;;;;;10.23;4.00;;;-2.10;99.90;;;;;;4153532;28;20459;-80
2021/12/27 01:43:08;;;;;;;10.73;4.50;;;-2.10;99.90;;;;;;4151483;28;20211;-81
2021/12/27 01:45:11;;;;;;;12.43;4.57;;;-2.10;99.90;;;;;;4145834;28;20265;-80
2021/12/27 01:47:13;;;;;;;9.52;3.88;;;-2.00;99.90;;;;;;4169214;28;20469;-81
2021/12/27 01:49:15;;;;;;;10.10;4.17;;;-2.00;99.90;;;;;;4163708;28;20277;-81
2021/12/27 01:51:18;;;;;;;9.07;4.28;;;-1.90;99.90;;;;;;4150810;28;20529;-81
2021/12/27 01:53:21;;;;;;;7.88;3.85;;;-2.00;99.90;;;;;;4135630;28;20219;-81
2021/12/27 01:55:23;;;;;;;11.70;4.10;;;-2.00;99.90;;;;;;4159082;28;20203;-81
2021/12/27 01:57:26;;;;;;;11.13;4.07;;;-2.00;99.90;;;;;;4152352;28;20443;-81
2021/12/27 01:59:28;;;;;;;9.25;4.18;;;-2.00;99.90;;;;;;4138331;28;20472;-81
2021/12/27 02:01:32;;;;;;;8.20;4.23;;;-2.00;99.90;;;;;;4135907;28;20223;-81
2021/12/27 02:03:35;;;;;;;9.27;4.43;;;-1.90;99.90;;;;;;4136191;28;20471;-80
2021/12/27 02:05:37;;;;;;;8.97;4.07;;;-1.90;99.90;;;;;;4154267;28;20461;-80
2021/12/27 02:07:39;;;;;;;11.07;3.90;;;-1.90;99.90;;;;;;4136190;28;20507;-80
2021/12/27 02:09:51;;;;;;;11.18;4.80;;;-1.90;99.90;;;;;;4136433;28;20459;-81
2021/12/27 02:11:53;;;;;;;11.10;4.50;;;-1.90;99.90;;;;;;4136303;28;20303;-80
2021/12/27 02:13:55;;;;;;;9.10;4.10;;;-1.80;99.90;;;;;;4135963;28;20474;-81
2021/12/27 02:15:57;;;;;;;11.40;4.37;;;-1.90;99.90;;;;;;4157532;28;20481;-81
2021/12/27 02:18:01;;;;;;;9.27;4.47;;;-1.80;99.90;;;;;;4168453;28;20482;-81
2021/12/27 02:20:05;;;;;;;9.53;4.63;;;-1.90;99.90;;;;;;4168588;28;20454;-81
2021/12/27 02:22:07;;;;;;;12.93;5.07;;;-1.80;99.90;;;;;;4168402;28;20898;-81
2021/12/27 02:24:09;;;;;;;9.93;4.40;;;-1.80;99.90;;;;;;4146745;28;20462;-81
2021/12/27 02:26:11;;;;;;;12.23;4.40;;;-1.80;99.90;;;;;;4161012;28;20875;-80
2021/12/27 02:28:14;;;;;;;12.63;4.23;;;-1.80;99.90;;;;;;4168195;28;20563;-82
2021/12/27 02:30:18;;;;;;;8.07;4.27;;;-1.80;99.90;;;;;;4168916;28;20512;-80
2021/12/27 02:32:20;;;;;;;9.77;4.13;;;-1.80;99.90;;;;;;4164185;28;20446;-80
2021/12/27 02:34:22;;;;;;;7.83;4.27;;;-1.70;99.90;;;;;;4144608;28;20964;-81
2021/12/27 02:36:25;;;;;;;11.33;4.40;;;-1.70;99.90;;;;;;4152221;28;20455;-81
2021/12/27 02:38:28;;;;;;;11.47;4.50;;;-1.70;99.90;;;;;;4152347;28;20514;-81
2021/12/27 02:40:32;;;;;;;10.33;4.43;;;-1.70;99.90;;;;;;4148415;28;20475;-80
2021/12/27 02:42:34;;;;;;;10.20;4.37;;;-1.60;99.90;;;;;;4136695;28;20448;-81
2021/12/27 02:44:36;;;;;;;10.27;4.43;;;-1.60;99.90;;;;;;4143989;28;20909;-81
2021/12/27 02:46:37;;;;;;;9.83;4.70;;;-1.60;99.90;;;;;;4152908;28;20463;-81
2021/12/27 02:48:41;;;;;;;12.20;4.53;;;-1.60;99.90;;;;;;4152650;28;20988;-80
2021/12/27 02:50:46;;;;;;;10.07;4.80;;;-1.60;99.90;;;;;;4141088;28;20476;-81
2021/12/27 02:52:50;;;;;;;12.93;4.73;;;-1.50;99.90;;;;;;4137429;28;20440;-81
2021/12/27 02:54:51;;;;;;;10.27;4.73;;;-1.60;99.90;;;;;;4149865;28;20512;-81
2021/12/27 02:56:53;;;;;;;11.30;5.07;;;-1.50;99.90;;;;;;4173505;28;20826;-80
2021/12/27 02:58:55;;;;;;;12.60;5.00;;;-1.50;99.90;;;;;;4150003;28;20519;-79
2021/12/27 03:01:00;;;;;;;9.40;4.77;;;-1.50;99.90;;;;;;4141758;28;20420;-80
2021/12/27 03:03:01;;;;;;;12.03;5.37;;;-1.50;99.90;;;;;;4143207;28;20452;-80
2021/12/27 03:05:03;;;;;;;9.83;5.00;;;-1.50;99.90;;;;;;4152475;28;20481;-80
2021/12/27 03:07:05;;;;;;;9.77;4.77;;;-1.50;99.90;;;;;;4167682;28;20445;-81
2021/12/27 03:09:08;;;;;;;11.37;4.70;;;-1.50;99.90;;;;;;4136829;28;20523;-81
2021/12/27 03:11:11;;;;;;;11.70;4.63;;;-1.50;99.90;;;;;;4136743;28;20788;-80
2021/12/27 03:13:16;;;;;;;11.47;5.03;;;-1.40;99.90;;;;;;4136789;28;20482;-81
2021/12/27 03:15:20;;;;;;;10.17;4.53;;;-1.40;99.90;;;;;;4145905;28;20469;-80
2021/12/27 03:17:21;;;;;;;10.77;4.83;;;-1.40;99.90;;;;;;4169864;28;20521;-80
2021/12/27 03:19:23;;;;;;;10.57;4.90;;;-1.40;99.90;;;;;;4169367;28;20480;-82
2021/12/27 03:21:25;;;;;;;12.67;5.30;;;-1.40;99.90;;;;;;4172612;28;20458;-81
2021/12/27 03:23:27;;;;;;;13.50;5.50;;;-1.40;99.90;;;;;;4177653;28;20477;-80
2021/12/27 03:25:30;;;;;;;11.10;5.60;;;-1.40;99.90;;;;;;4160176;28;20462;-81
2021/12/27 03:27:32;;;;;;;13.43;5.60;;;-1.40;99.90;;;;;;4175547;28;20470;-81
2021/12/27 03:29:34;;;;;;;12.13;5.00;;;-1.30;99.90;;;;;;4180828;28;20512;-81
2021/12/27 03:31:37;;;;;;;15.23;5.60;;;-1.30;99.90;;;;;;4179914;28;20450;-82
2021/12/27 03:33:39;;;;;;;11.33;4.87;;;-1.30;99.90;;;;;;4160192;28;20471;-82
2021/12/27 03:35:51;;;;;;;10.30;4.87;;;-1.30;99.90;;;;;;4153197;28;20494;-82
2021/12/27 03:37:56;;;;;;;13.23;5.03;;;-1.30;99.90;;;;;;4182423;28;20477;-80
2021/12/27 03:39:58;;;;;;;13.50;5.60;;;-1.30;99.90;;;;;;4182177;28;20444;-80
2021/12/27 03:42:01;;;;;;;12.00;5.33;;;-1.30;99.90;;;;;;4176558;28;20491;-81
2021/12/27 03:44:04;;;;;;;13.60;5.20;;;-1.30;99.90;;;;;;4150201;28;20483;-80
2021/12/27 03:46:06;;;;;;;10.50;5.00;;;-1.20;99.90;;;;;;4140616;28;20464;-82
2021/12/27 03:48:10;;;;;;;11.97;5.73;;;-1.20;99.90;;;;;;4168291;28;20482;-82
2021/12/27 03:50:11;;;;;;;10.37;4.87;;;-1.20;99.90;;;;;;4158710;28;20543;-82
2021/12/27 03:52:13;;;;;;;11.67;5.63;;;-1.20;99.90;;;;;;4133863;28;20459;-82
2021/12/27 03:54:15;;;;;;;9.73;4.93;;;-1.20;99.90;;;;;;4134356;28;20448;-82
2021/12/27 03:56:17;;;;;;;12.57;5.10;;;-1.20;99.90;;;;;;4135852;28;20898;-82
2021/12/27 03:58:27;;;;;;;11.93;5.80;;;-1.10;99.90;;;;;;4158939;28;20490;-81
2021/12/27 04:00:43;;;;;;;12.17;5.47;;;-1.10;99.90;;;;;;4134127;28;20956;-82
2021/12/27 04:02:45;;;;;;;13.63;5.47;;;-1.10;99.90;;;;;;4134799;28;20499;-81
2021/12/27 04:04:47;;;;;;;13.03;5.67;;;-1.10;99.90;;;;;;4133657;28;20455;-82
2021/12/27 04:06:48;;;;;;;12.37;6.00;;;-1.10;99.90;;;;;;4139500;28;20925;-82
2021/12/27 04:08:50;;;;;;;12.27;5.53;;;-1.00;99.90;;;;;;4152433;28;20549;-82
2021/12/27 04:10:53;;;;;;;12.47;5.67;;;-1.00;99.90;;;;;;4150995;28;20473;-82
2021/12/27 04:12:55;;;;;;;12.97;5.40;;;-1.00;99.90;;;;;;4136556;28;20480;-82
2021/12/27 04:14:58;;;;;;;12.63;5.77;;;-1.00;99.90;;;;;;4134372;28;20467;-82
2021/12/27 04:16:59;;;;;;;12.33;5.83;;;-1.00;99.90;;;;;;4136079;28;20456;-82
2021/12/27 04:19:01;;;;;;;13.23;6.10;;;-1.00;99.90;;;;;;4174179;28;20505;-82
2021/12/27 04:21:03;;;;;;;10.83;5.30;;;-1.00;99.90;;;;;;4170182;28;20841;-81
2021/12/27 04:23:05;;;;;;;13.03;5.23;;;-1.00;99.90;;;;;;4145480;28;20460;-82
2021/12/27 04:25:08;;;;;;;12.50;6.20;;;-0.90;99.90;;;;;;4145325;28;20456;-82
2021/12/27 04:27:10;;;;;;;12.97;6.03;;;-0.90;99.90;;;;;;4144669;28;20579;-82
2021/12/27 04:29:11;;;;;;;11.37;5.37;;;-1.00;99.90;;;;;;4173011;28;20481;-82
2021/12/27 04:31:15;;;;;;;12.63;6.30;;;-0.90;99.90;;;;;;4137567;28;20483;-81
2021/12/27 04:33:17;;;;;;;13.77;6.07;;;-0.90;99.90;;;;;;4138736;28;20543;-82
2021/12/27 04:35:21;;;;;;;17.87;5.83;;;-0.90;99.90;;;;;;4137472;28;20464;-82
2021/12/27 04:37:23;;;;;;;14.07;6.17;;;-0.90;99.90;;;;;;4138498;28;20471;-82
2021/12/27 04:39:25;;;;;;;13.50;6.00;;;-0.90;99.90;;;;;;4149081;28;20490;-82
2021/12/27 04:41:27;;;;;;;11.97;5.73;;;-0.90;99.90;;;;;;4154020;28;20461;-82
2021/12/27 04:43:29;;;;;;;13.27;5.70;;;-0.90;99.90;;;;;;4153168;28;20663;-82
2021/12/27 04:45:31;;;;;;;15.07;6.60;;;-0.90;99.90;;;;;;4148615;28;20443;-81
2021/12/27 04:47:34;;;;;;;14.80;6.73;;;-0.80;99.90;;;;;;4132909;28;20483;-82
2021/12/27 04:49:36;;;;;;;11.37;5.63;;;-0.80;99.90;;;;;;4160861;28;20485;-82
2021/12/27 04:51:37;;;;;;;13.57;6.60;;;-0.80;99.90;;;;;;4165883;28;20466;-82
2021/12/27 04:53:39;;;;;;;13.27;6.17;;;-0.80;99.90;;;;;;4166616;28;20508;-82
2021/12/27 04:55:41;;;;;;;13.30;5.83;;;-0.80;99.90;;;;;;4133992;28;20504;-82
2021/12/27 04:57:43;;;;;;;11.03;5.50;;;-0.80;99.90;;;;;;4134385;28;21011;-81
2021/12/27 04:59:45;;;;;;;15.70;6.67;;;-0.80;99.90;;;;;;4157263;28;21006;-82
2021/12/27 05:01:46;;;;;;;15.00;6.53;;;-0.80;99.90;;;;;;4166649;28;20777;-82
2021/12/27 05:03:50;;;;;;;14.30;6.30;;;-0.70;99.90;;;;;;4146764;28;20475;-81
2021/12/27 05:05:51;;;;;;;12.93;5.90;;;-0.70;99.90;;;;;;4134643;28;20436;-81
2021/12/27 05:07:53;;;;;;;14.73;6.40;;;-0.70;99.90;;;;;;4133670;28;20476;-81
2021/12/27 05:09:55;;;;;;;13.77;6.80;;;-0.70;99.90;;;;;;4154805;28;20544;-81
2021/12/27 05:11:57;;;;;;;14.10;6.57;;;-0.70;99.90;;;;;;4166626;28;20457;-81
2021/12/27 05:13:59;;;;;;;15.93;6.67;;;-0.70;99.90;;;;;;4140539;28;20534;-81
2021/12/27 05:16:01;;;;;;;14.47;6.53;;;-0.70;99.90;;;;;;4134688;28;21028;-81
2021/12/27 05:18:04;;;;;;;15.27;6.70;;;-0.70;99.90;;;;;;4135343;28;21013;-81
2021/12/27 05:20:09;;;;;;;16.23;6.53;;;-0.60;99.90;;;;;;4155608;28;20450;-81
2021/12/27 05:22:10;;;;;;;14.30;6.70;;;-0.60;99.90;;;;;;4144232;28;20475;-81
2021/12/27 05:24:13;;;;;;;12.83;6.43;;;-0.60;99.90;;;;;;4137824;28;20439;-82
2021/12/27 05:26:15;;;;;;;13.00;6.20;;;-0.60;99.90;;;;;;4137583;28;20455;-82
2021/12/27 05:28:16;;;;;;;14.40;5.87;;;-0.60;99.90;;;;;;4136996;28;20479;-82
2021/12/27 05:30:18;;;;;;;13.17;6.27;;;-0.50;99.90;;;;;;4153209;28;20521;-82
2021/12/27 05:32:20;;;;;;;15.00;6.50;;;-0.60;99.90;;;;;;4170307;28;20462;-82
2021/12/27 05:34:22;;;;;;;15.87;6.97;;;-0.60;99.90;;;;;;4169888;28;20517;-82
2021/12/27 05:36:25;;;;;;;15.00;6.90;;;-0.50;99.90;;;;;;4170634;28;20450;-81
2021/12/27 05:38:27;;;;;;;15.77;7.33;;;-0.50;99.90;;;;;;4154711;28;20499;-82
2021/12/27 05:40:28;;;;;;;12.97;6.13;;;-0.50;99.90;;;;;;4150737;28;20500;-81
2021/12/27 05:42:30;;;;;;;15.50;7.30;;;-0.50;99.90;;;;;;4170015;28;20461;-81
2021/12/27 05:44:32;;;;;;;14.83;6.03;;;-0.50;99.90;;;;;;4170432;28;20878;-81
2021/12/27 05:46:34;;;;;;;13.67;6.60;;;-0.50;99.90;;;;;;4163955;28;20485;-81
2021/12/27 05:48:35;;;;;;;16.40;7.10;;;-0.50;99.90;;;;;;4138547;28;20510;-81
2021/12/27 05:50:38;;;;;;;14.90;6.53;;;-0.50;99.90;;;;;;4147529;28;20491;-81
2021/12/27 05:52:41;;;;;;;12.63;6.50;;;-0.50;99.90;;;;;;4171128;28;20904;-81
2021/12/27 05:54:43;;;;;;;12.70;6.27;;;-0.40;99.90;;;;;;4171367;28;20458;-81
2021/12/27 05:56:45;;;;;;;12.80;6.00;;;-0.40;99.90;;;;;;4161245;28;20457;-81
2021/12/27 05:58:46;;;;;;;15.47;6.83;;;-0.40;99.90;;;;;;4137647;28;20530;-81
2021/12/27 06:00:48;;;;;;;14.57;7.03;;;-0.40;99.90;;;;;;4145188;28;21114;-82
2021/12/27 06:02:54;;;;;;;14.93;6.70;;;-0.40;99.90;;;;;;4166131;28;20541;-82
2021/12/27 06:04:57;;;;;;;14.40;7.13;;;-0.40;99.90;;;;;;4137266;28;20845;-82
2021/12/27 06:06:59;;;;;;;14.77;6.70;;;-0.10;99.90;;;;;;4137138;28;20948;-82
2021/12/27 06:09:03;;;;;;;16.40;6.93;;;-0.30;99.90;;;;;;4137854;28;20480;-81
2021/12/27 06:11:04;;;;;;;11.90;6.43;;;-0.30;99.90;;;;;;4138661;28;20843;-81
2021/12/27 06:13:06;;;;;;;14.30;6.97;;;-0.30;99.90;;;;;;4153686;28;20855;-81
2021/12/27 06:15:09;;;;;;;14.10;6.70;;;-0.30;99.90;;;;;;4153822;28;20520;-82
2021/12/27 06:17:11;;;;;;;13.77;6.43;;;-0.30;99.90;;;;;;4154271;28;20455;-81
2021/12/27 06:19:13;;;;;;;14.00;6.47;;;-0.30;99.90;;;;;;4147063;28;20464;-81
2021/12/27 06:21:15;;;;;;;15.27;6.97;;;-0.30;99.90;;;;;;4141170;28;20948;-81
2021/12/27 06:23:17;;;;;;;13.53;6.90;;;-0.30;99.90;;;;;;4170501;28;20457;-81
2021/12/27 06:25:20;;;;;;;15.23;7.00;;;-0.30;99.90;;;;;;4171179;28;20442;-81
2021/12/27 06:27:22;;;;;;;15.37;6.53;;;-0.30;99.90;;;;;;4169807;28;20454;-81
2021/12/27 06:29:24;;;;;;;14.33;7.20;;;-0.30;99.90;;;;;;4141038;28;20458;-81
2021/12/27 06:31:25;;;;;;;14.03;6.50;;;-0.30;99.90;;;;;;4142422;28;20461;-81
2021/12/27 06:33:27;;;;;;;14.70;6.63;;;-0.20;99.90;;;;;;4175368;28;20458;-80
2021/12/27 06:35:29;;;;;;;15.03;7.20;;;-0.20;99.90;;;;;;4178631;28;20836;-81
2021/12/27 06:37:31;;;;;;;15.10;6.93;;;-0.20;99.90;;;;;;4151419;28;20516;-81
2021/12/27 06:39:33;;;;;;;17.10;7.37;;;-0.20;99.90;;;;;;4137830;28;20459;-81
2021/12/27 06:41:36;;;;;;;20.50;7.47;;;-0.20;99.90;;;;;;4137258;28;20456;-82
2021/12/27 06:43:38;;;;;;;16.20;7.43;;;-0.20;99.90;;;;;;4167282;28;20458;-81
2021/12/27 06:45:40;;;;;;;13.73;6.07;;;-0.20;99.90;;;;;;4144073;28;20507;-81
2021/12/27 06:47:42;;;;;;;12.73;6.17;;;-0.20;99.90;;;;;;4136363;28;20546;-82
2021/12/27 06:49:43;;;;;;;15.43;7.10;;;-0.20;99.90;;;;;;4136526;28;20538;-81
2021/12/27 06:51:45;;;;;;;16.60;6.93;;;-0.20;99.90;;;;;;4136758;28;20464;-82
2021/12/27 06:53:47;;;;;;;15.17;6.93;;;-0.20;99.90;;;;;;4161368;28;20464;-81
2021/12/27 06:55:49;;;;;;;15.03;7.80;;;-0.10;99.90;;;;;;4137650;28;20464;-81
2021/12/27 06:57:52;;;;;;;16.60;6.97;;;-0.10;99.90;;;;;;4138339;28;20516;-81
2021/12/27 06:59:54;;;;;;;15.40;7.00;;;-0.10;99.90;;;;;;4139779;28;20451;-82
2021/12/27 07:01:56;;;;;;;16.03;7.37;;;-0.10;99.90;;;;;;4141375;28;20610;-81
2021/12/27 07:03:58;;;;;;;15.47;7.57;;;-0.10;99.90;;;;;;4152652;28;20459;-81
2021/12/27 07:06:00;;;;;;;17.80;7.20;;;-0.10;99.90;;;;;;4160026;28;20436;-81
2021/12/27 07:08:01;;;;;;;15.90;8.10;;;-0.10;99.90;;;;;;4160794;28;20456;-81
2021/12/27 07:10:04;;;;;;;14.50;7.40;;;-0.10;99.90;;;;;;4159491;28;20487;-81
2021/12/27 07:12:08;;;;;;;17.10;7.67;;;0.00;99.90;;;;;;4142377;28;20532;-81
2021/12/27 07:14:11;;;;;;;17.20;8.03;;;0.00;99.90;;;;;;4160673;28;20458;-81
2021/12/27 07:16:13;;;;;;;18.47;7.87;;;0.00;99.90;;;;;;4171320;28;20465;-80
2021/12/27 07:18:22;;;;;;;17.37;7.97;;;0.00;99.90;;;;;;4173338;28;20486;-81
2021/12/27 07:20:24;;;;;;;15.50;7.50;;;0.00;99.90;;;;;;4175556;28;20450;-80
2021/12/27 07:22:26;;;;;;;15.30;7.23;;;0.00;99.90;;;;;;4156928;28;20470;-82
2021/12/27 07:24:29;;;;;;;16.97;7.63;;;0.00;99.90;;;;;;4171062;28;20450;-82
2021/12/27 07:26:30;;;;;;;16.43;7.20;;;0.00;99.90;;;;;;4179141;28;20443;-82
2021/12/27 07:28:32;;;;;;;16.00;7.07;;;0.00;99.90;;;;;;4174091;28;20766;-81
2021/12/27 07:30:35;;;;;;;17.20;7.83;;;0.00;99.90;;;;;;4156803;28;20893;-80
2021/12/27 07:32:37;;;;;;;17.57;7.30;;;0.00;99.90;;;;;;4136436;28;20467;-80
2021/12/27 07:34:40;;;;;;;17.33;7.87;;;0.00;99.90;;;;;;4155201;28;20703;-80
2021/12/27 07:36:42;;;;;;;15.93;7.37;;;0.00;99.90;;;;;;4168717;28;20940;-80
2021/12/27 07:38:44;;;;;;;16.23;7.57;;;0.10;99.90;;;;;;4169774;22;20504;-71
2021/12/27 07:40:46;;;;;;;16.17;7.70;;;0.10;99.90;;;;;;4132736;28;20518;-75
2021/12/27 07:42:47;;;;;;;18.50;7.43;;;0.10;99.90;;;;;;4132334;28;20455;-71
2021/12/27 07:44:49;;;;;;;17.77;7.57;;;0.10;99.90;;;;;;4147388;28;20511;-71
2021/12/27 07:46:52;;;;;;;16.37;7.77;;;0.10;99.90;;;;;;4164415;28;20958;-71
2021/12/27 07:48:54;;;;;;;16.03;7.17;;;0.10;99.90;;;;;;4139717;28;20921;-73
2021/12/27 07:50:56;;;;;;;17.50;7.53;;;0.10;99.90;;;;;;4131476;28;20920;-71
2021/12/27 07:52:58;;;;;;;17.87;8.37;;;0.10;99.90;;;;;;4137821;28;20456;-71
2021/12/27 07:54:59;;;;;;;18.53;7.53;;;0.10;99.90;;;;;;4148961;28;20885;-71
2021/12/27 07:57:01;;;;;;;16.43;8.13;;;0.20;99.90;;;;;;4152843;28;20485;-71
2021/12/27 07:59:04;;;;;;;13.97;7.50;;;0.20;99.90;;;;;;4131452;28;21095;-71
2021/12/27 08:01:06;;;;;;;16.27;7.73;;;0.20;99.90;;;;;;4131495;28;20459;-71
2021/12/27 08:03:09;;;;;;;15.50;7.57;;;0.20;99.90;;;;;;4140943;28;20459;-71
2021/12/27 08:05:11;;;;;;;20.53;8.13;;;0.20;99.90;;;;;;4164366;28;20459;-71
2021/12/27 08:07:13;;;;;;;20.27;8.10;;;0.20;99.90;;;;;;4164098;28;20455;-71
2021/12/27 08:09:14;;;;;;;17.63;7.87;;;0.30;99.90;;;;;;4139622;28;20845;-72
2021/12/27 08:11:16;;;;;;;18.57;8.47;;;0.30;99.90;;;;;;4147699;28;20549;-72
2021/12/27 08:13:18;;;;;;;17.90;8.13;;;0.30;99.90;;;;;;4147592;28;20471;-76
2021/12/27 08:15:20;;;;;;;16.73;7.17;;;0.30;99.90;;;;;;4147587;28;20537;-73
2021/12/27 08:17:22;;;;;;;18.97;8.17;;;0.30;99.90;;;;;;4142270;28;20904;-71
2021/12/27 08:19:25;;;;;;;19.17;8.77;;;0.30;99.90;;;;;;4131308;28;20950;-71
2021/12/27 08:21:29;;;;;;;18.17;8.37;;;0.30;99.90;;;;;;4162338;28;20513;-73
2021/12/27 08:23:30;;;;;;;18.53;8.43;;;0.30;99.90;;;;;;4163861;28;20880;-71
2021/12/27 08:25:32;;;;;;;17.87;8.00;;;0.30;99.90;;;;;;4152573;28;20471;-71
2021/12/27 08:27:35;;;;;;;17.93;8.23;;;0.40;99.90;;;;;;4147464;28;20456;-72
2021/12/27 08:29:37;;;;;;;19.23;9.03;;;0.40;99.90;;;;;;4147447;28;20463;-73
2021/12/27 08:31:39;;;;;;;18.37;8.40;;;0.40;99.90;;;;;;4147223;28;20551;-71
2021/12/27 08:33:41;;;;;;;18.47;8.07;;;0.40;99.90;;;;;;4148138;28;20465;-71
2021/12/27 08:35:44;;;;;;;17.83;8.63;;;0.40;99.90;;;;;;4147609;28;20497;-71
2021/12/27 08:37:45;;;;;;;19.57;8.83;;;0.40;99.90;;;;;;4147297;28;20569;-73
2021/12/27 08:39:47;;;;;;;19.07;9.17;;;0.40;99.90;;;;;;4147576;28;20461;-71
2021/12/27 08:41:49;;;;;;;19.93;7.90;;;0.50;99.90;;;;;;4146617;28;20514;-71
2021/12/27 08:43:50;;;;;;;20.70;8.67;;;0.50;99.90;;;;;;4131105;28;20488;-71
2021/12/27 08:45:52;;;;;;;18.20;8.57;;;0.50;99.90;;;;;;4131229;28;20461;-71
2021/12/27 08:47:54;;;;;;;17.17;8.23;;;0.50;99.90;;;;;;4133248;28;20476;-72
2021/12/27 08:49:56;;;;;;;18.83;8.60;;;0.50;99.90;;;;;;4145841;28;20462;-71
2021/12/27 08:51:59;;;;;;;18.97;8.53;;;0.60;99.90;;;;;;4131143;28;20500;-71
2021/12/27 08:54:01;;;;;;;22.10;8.40;;;0.60;99.90;;;;;;4134499;28;21025;-71
2021/12/27 08:56:03;;;;;;;18.37;7.63;;;0.60;99.90;;;;;;4134379;28;20461;-71
2021/12/27 08:58:05;;;;;;;17.33;8.20;;;0.70;99.90;;;;;;4135068;28;20545;-71
2021/12/27 09:00:10;;;;;;;17.77;7.87;;;0.70;99.90;;;;;;4150107;28;21028;-72
2021/12/27 09:02:12;;;;;;;17.83;7.93;;;0.70;99.90;;;;;;4150661;28;20460;-71
2021/12/27 09:04:14;;;;;;;19.67;8.23;;;0.70;99.90;;;;;;4150439;28;20467;-71
2021/12/27 09:06:15;;;;;;;21.87;8.30;;;0.70;99.90;;;;;;4150424;28;20503;-71
2021/12/27 09:08:18;;;;;;;21.77;8.93;;;0.70;99.90;;;;;;4138834;28;20485;-71
2021/12/27 09:10:20;;;;;;;17.87;7.87;;;0.80;99.90;;;;;;4165556;28;20533;-71
2021/12/27 09:12:22;;;;;;;18.17;8.17;;;0.80;99.90;;;;;;4166798;28;20456;-71
2021/12/27 09:14:24;;;;;;;22.77;9.13;;;0.80;99.90;;;;;;4166763;28;20884;-71
2021/12/27 09:16:27;;;;;;;20.07;9.10;;;0.80;99.90;;;;;;4139508;28;20533;-71
2021/12/27 09:18:29;;;;;;;17.70;8.07;;;0.80;99.90;;;;;;4134038;28;20479;-71
2021/12/27 09:20:31;;;;;;;16.37;7.90;;;0.80;99.90;;;;;;4162571;28;20464;-74
2021/12/27 09:22:33;;;;;;;18.60;8.23;;;0.90;99.90;;;;;;4166624;28;20460;-74
2021/12/27 09:24:36;;;;;;;18.47;8.13;;;0.90;99.90;;;;;;4153367;28;20569;-71
2021/12/27 09:26:39;;;;;;;19.53;8.50;;;1.00;99.90;;;;;;4133704;28;20466;-71
2021/12/27 09:28:41;;;;;;;19.53;8.53;;;1.10;99.90;;;;;;4133857;28;21030;-73
2021/12/27 09:30:43;;;;;;;19.07;8.07;;;1.10;99.90;;;;;;4147244;28;20489;-72
2021/12/27 09:32:45;;;;;;;18.47;8.63;;;1.10;99.90;;;;;;4150173;28;21134;-71
2021/12/27 09:34:47;;;;;;;21.97;8.63;;;1.20;99.90;;;;;;4137046;28;20501;-71
2021/12/27 09:36:48;;;;;;;17.87;8.87;;;1.30;99.90;;;;;;4133909;28;20520;-72
2021/12/27 09:38:50;;;;;;;19.83;8.27;;;1.30;99.90;;;;;;4133670;28;20545;-72
2021/12/27 09:40:53;;;;;;;18.50;8.37;;;1.30;99.90;;;;;;4157085;28;20515;-72
2021/12/27 09:42:55;;;;;;;18.40;8.23;;;1.40;99.90;;;;;;4162586;28;20557;-71
2021/12/27 09:44:57;;;;;;;17.60;8.07;;;1.40;99.90;;;;;;4149824;28;20513;-73
2021/12/27 09:46:59;;;;;;;16.93;7.40;;;1.40;99.90;;;;;;4149817;28;21005;-71
2021/12/27 09:49:04;;;;;;;18.73;8.20;;;1.40;99.90;;;;;;4149625;28;20482;-72
2021/12/27 09:51:10;;;;;;;20.50;8.53;;;1.40;99.90;;;;;;4159409;28;20493;-72
2021/12/27 09:53:12;;;;;;;20.10;8.97;;;1.40;99.90;;;;;;4138974;28;20518;-75
2021/12/27 09:55:14;;;;;;;20.17;8.60;;;1.40;99.90;;;;;;4133319;28;20460;-75
2021/12/27 09:57:17;;;;;;;18.13;8.10;;;1.40;99.90;;;;;;4133365;28;20522;-72
2021/12/27 09:59:20;;;;;;;18.80;8.40;;;1.40;99.90;;;;;;4132793;28;20499;-72
2021/12/27 10:01:22;;;;;;;20.00;8.23;;;1.40;99.90;;;;;;4153602;28;20463;-72
2021/12/27 10:03:24;;;;;;;15.43;7.93;;;1.40;99.90;;;;;;4165436;28;20465;-71
2021/12/27 10:05:28;;;;;;;16.70;8.20;;;1.40;99.90;;;;;;4165823;28;20453;-71
2021/12/27 10:07:30;;;;;;;17.87;8.23;;;1.50;99.90;;;;;;4154857;28;21029;-72
2021/12/27 10:09:33;;;;;;;18.43;9.23;;;1.50;99.90;;;;;;4149419;28;20509;-72
2021/12/27 10:11:38;;;;;;;18.57;8.90;;;1.50;99.90;;;;;;4152845;28;20543;-72
2021/12/27 10:13:42;;;;;;;17.13;8.40;;;1.50;99.90;;;;;;4165845;28;20730;-72
2021/12/27 10:15:46;;;;;;;19.20;9.27;;;1.50;99.90;;;;;;4140878;28;20972;-72
2021/12/27 10:17:49;;;;;;;22.03;9.50;;;1.60;99.90;;;;;;4141937;28;20896;-72
2021/12/27 10:19:52;;;;;;;18.80;9.00;;;1.60;99.90;;;;;;4149349;28;20485;-73
2021/12/27 10:21:54;;;;;;;19.97;9.73;;;1.60;99.90;;;;;;4149164;28;20454;-72
2021/12/27 10:24:07;;;;;;;19.00;8.83;;;1.60;99.90;;;;;;4148048;28;20885;-72
2021/12/27 10:26:09;;;;;;;19.20;9.37;;;1.60;99.90;;;;;;4157297;28;20663;-73
2021/12/27 10:28:10;;;;;;;19.40;8.63;;;1.60;99.90;;;;;;4165456;28;20827;-74
2021/12/27 10:30:17;;;;;;;20.70;8.77;;;1.60;99.90;;;;;;4132649;28;20459;-73
2021/12/27 10:32:18;;;;;;;19.90;9.63;;;1.60;99.90;;;;;;4132738;28;21015;-73
2021/12/27 10:34:22;;;;;;;20.53;9.27;;;1.60;99.90;;;;;;4132843;28;20465;-73